Terminal Aerodrome Forecast
Issued by NWS

Home | Current Version | Previous Version | Text Only | Print | Product List | Glossary On
Versions: 1 2 3 4 5 6 7 8 9 10 11 12 13
000
FTUS46 KSEW 232320
TAFBFI
TAF
KBFI 232320Z 2400/2424 16005KT P6SM SCT050 BKN100 OVC150
     FM240400 14006KT P6SM -RA OVC040
     FM241200 15009KT P6SM -RA OVC040
     FM241600 16010KT P6SM -SHRA BKN040 OVC060=

USA.gov is the U.S. government's official web portal to all federal, state and local government web resources and services.